sensor_id;sensor_type;location;lat;lon;timestamp;P1;durP1;ratioP1;P2;durP2;ratioP2
17812;SDS011;9030;50.792;8.320;2023-05-31T00:01:02;21.92;;;11.32;;
17812;SDS011;9030;50.792;8.320;2023-05-31T00:03:29;17.88;;;11.68;;
17812;SDS011;9030;50.792;8.320;2023-05-31T00:05:57;16.25;;;10.45;;
17812;SDS011;9030;50.792;8.320;2023-05-31T00:08:23;18.17;;;11.38;;
17812;SDS011;9030;50.792;8.320;2023-05-31T00:10:50;18.88;;;11.57;;
17812;SDS011;9030;50.792;8.320;2023-05-31T00:13:17;19.35;;;12.23;;
17812;SDS011;9030;50.792;8.320;2023-05-31T00:15:44;17.23;;;11.23;;
17812;SDS011;9030;50.792;8.320;2023-05-31T00:18:10;20.15;;;11.23;;
17812;SDS011;9030;50.792;8.320;2023-05-31T00:20:37;22.25;;;11.40;;
17812;SDS011;9030;50.792;8.320;2023-05-31T00:23:05;18.95;;;12.07;;
17812;SDS011;9030;50.792;8.320;2023-05-31T00:25:32;21.67;;;12.18;;
17812;SDS011;9030;50.792;8.320;2023-05-31T00:27:58;26.60;;;13.23;;
17812;SDS011;9030;50.792;8.320;2023-05-31T00:30:25;17.38;;;11.02;;
17812;SDS011;9030;50.792;8.320;2023-05-31T00:32:52;22.58;;;13.45;;
17812;SDS011;9030;50.792;8.320;2023-05-31T00:35:18;22.52;;;12.80;;
17812;SDS011;9030;50.792;8.320;2023-05-31T00:37:45;18.42;;;11.23;;
17812;SDS011;9030;50.792;8.320;2023-05-31T00:40:13;23.20;;;12.80;;
17812;SDS011;9030;50.792;8.320;2023-05-31T00:42:40;19.20;;;12.65;;
17812;SDS011;9030;50.792;8.320;2023-05-31T00:45:07;22.50;;;15.40;;
17812;SDS011;9030;50.792;8.320;2023-05-31T00:47:34;23.90;;;12.82;;
17812;SDS011;9030;50.792;8.320;2023-05-31T00:50:01;26.63;;;13.43;;
17812;SDS011;9030;50.792;8.320;2023-05-31T00:52:28;19.92;;;11.75;;
17812;SDS011;9030;50.792;8.320;2023-05-31T00:54:56;20.58;;;13.32;;
17812;SDS011;9030;50.792;8.320;2023-05-31T00:57:25;23.60;;;13.13;;
17812;SDS011;9030;50.792;8.320;2023-05-31T00:59:51;18.08;;;12.32;;
17812;SDS011;9030;50.792;8.320;2023-05-31T01:02:18;22.08;;;13.55;;
17812;SDS011;9030;50.792;8.320;2023-05-31T01:04:45;19.08;;;11.40;;
17812;SDS011;9030;50.792;8.320;2023-05-31T01:07:12;20.17;;;11.75;;
17812;SDS011;9030;50.792;8.320;2023-05-31T01:09:40;20.40;;;12.45;;
17812;SDS011;9030;50.792;8.320;2023-05-31T01:12:11;19.67;;;12.23;;
17812;SDS011;9030;50.792;8.320;2023-05-31T01:14:53;17.45;;;11.73;;
17812;SDS011;9030;50.792;8.320;2023-05-31T01:17:28;18.52;;;12.20;;
17812;SDS011;9030;50.792;8.320;2023-05-31T01:20:00;19.55;;;12.35;;
17812;SDS011;9030;50.792;8.320;2023-05-31T01:22:36;19.65;;;11.73;;
17812;SDS011;9030;50.792;8.320;2023-05-31T01:25:14;19.85;;;12.30;;
17812;SDS011;9030;50.792;8.320;2023-05-31T01:28:02;18.33;;;12.23;;
17812;SDS011;9030;50.792;8.320;2023-05-31T01:30:31;17.55;;;10.60;;
17812;SDS011;9030;50.792;8.320;2023-05-31T01:33:00;19.35;;;11.75;;
17812;SDS011;9030;50.792;8.320;2023-05-31T01:35:27;16.08;;;10.90;;
17812;SDS011;9030;50.792;8.320;2023-05-31T01:37:54;18.33;;;11.07;;
17812;SDS011;9030;50.792;8.320;2023-05-31T01:40:21;18.95;;;11.60;;
17812;SDS011;9030;50.792;8.320;2023-05-31T01:42:47;19.65;;;12.00;;
17812;SDS011;9030;50.792;8.320;2023-05-31T01:45:17;21.02;;;12.85;;
17812;SDS011;9030;50.792;8.320;2023-05-31T01:47:44;18.88;;;11.07;;
17812;SDS011;9030;50.792;8.320;2023-05-31T01:50:13;16.92;;;10.98;;
17812;SDS011;9030;50.792;8.320;2023-05-31T01:52:41;18.60;;;11.68;;
17812;SDS011;9030;50.792;8.320;2023-05-31T01:55:08;20.30;;;12.93;;
17812;SDS011;9030;50.792;8.320;2023-05-31T01:57:35;18.83;;;10.90;;
17812;SDS011;9030;50.792;8.320;2023-05-31T02:00:04;18.80;;;10.88;;
17812;SDS011;9030;50.792;8.320;2023-05-31T02:02:38;17.80;;;10.23;;
17812;SDS011;9030;50.792;8.320;2023-05-31T02:05:06;23.55;;;11.68;;
17812;SDS011;9030;50.792;8.320;2023-05-31T02:10:58;18.90;;;9.95;;
17812;SDS011;9030;50.792;8.320;2023-05-31T02:13:25;16.27;;;10.20;;
17812;SDS011;9030;50.792;8.320;2023-05-31T02:15:53;20.02;;;11.40;;
17812;SDS011;9030;50.792;8.320;2023-05-31T02:18:22;22.83;;;11.88;;
17812;SDS011;9030;50.792;8.320;2023-05-31T02:20:51;19.42;;;10.30;;
17812;SDS011;9030;50.792;8.320;2023-05-31T02:23:18;17.20;;;10.18;;
17812;SDS011;9030;50.792;8.320;2023-05-31T02:25:45;18.00;;;10.68;;
17812;SDS011;9030;50.792;8.320;2023-05-31T02:28:12;20.08;;;11.88;;
17812;SDS011;9030;50.792;8.320;2023-05-31T02:30:40;18.02;;;11.57;;
17812;SDS011;9030;50.792;8.320;2023-05-31T02:33:07;19.48;;;11.32;;
17812;SDS011;9030;50.792;8.320;2023-05-31T02:35:35;16.48;;;10.23;;
17812;SDS011;9030;50.792;8.320;2023-05-31T02:38:02;18.73;;;10.93;;
17812;SDS011;9030;50.792;8.320;2023-05-31T02:40:28;18.48;;;11.40;;
17812;SDS011;9030;50.792;8.320;2023-05-31T02:42:55;17.90;;;11.13;;
17812;SDS011;9030;50.792;8.320;2023-05-31T02:45:21;18.17;;;11.80;;
17812;SDS011;9030;50.792;8.320;2023-05-31T02:47:48;21.55;;;12.18;;
17812;SDS011;9030;50.792;8.320;2023-05-31T02:50:15;21.65;;;11.55;;
17812;SDS011;9030;50.792;8.320;2023-05-31T02:52:43;17.63;;;11.63;;
17812;SDS011;9030;50.792;8.320;2023-05-31T02:55:10;19.60;;;10.30;;
17812;SDS011;9030;50.792;8.320;2023-05-31T02:57:36;20.02;;;11.23;;
17812;SDS011;9030;50.792;8.320;2023-05-31T03:00:03;17.73;;;10.93;;
17812;SDS011;9030;50.792;8.320;2023-05-31T03:02:35;19.55;;;10.38;;
17812;SDS011;9030;50.792;8.320;2023-05-31T03:05:03;16.90;;;10.18;;
17812;SDS011;9030;50.792;8.320;2023-05-31T03:07:30;17.55;;;11.07;;
17812;SDS011;9030;50.792;8.320;2023-05-31T03:09:58;18.95;;;10.38;;
17812;SDS011;9030;50.792;8.320;2023-05-31T03:12:25;19.23;;;10.88;;
17812;SDS011;9030;50.792;8.320;2023-05-31T03:14:52;19.38;;;10.00;;
17812;SDS011;9030;50.792;8.320;2023-05-31T03:17:18;18.83;;;10.68;;
17812;SDS011;9030;50.792;8.320;2023-05-31T03:19:45;16.75;;;10.73;;
17812;SDS011;9030;50.792;8.320;2023-05-31T03:22:12;20.20;;;11.18;;
17812;SDS011;9030;50.792;8.320;2023-05-31T03:24:38;20.02;;;11.88;;
17812;SDS011;9030;50.792;8.320;2023-05-31T03:27:06;19.00;;;11.00;;
17812;SDS011;9030;50.792;8.320;2023-05-31T03:29:33;22.90;;;11.60;;
17812;SDS011;9030;50.792;8.320;2023-05-31T03:32:02;18.23;;;11.88;;
17812;SDS011;9030;50.792;8.320;2023-05-31T03:34:30;18.42;;;11.35;;
17812;SDS011;9030;50.792;8.320;2023-05-31T03:36:58;19.38;;;11.20;;
17812;SDS011;9030;50.792;8.320;2023-05-31T03:39:24;21.45;;;11.10;;
17812;SDS011;9030;50.792;8.320;2023-05-31T03:41:51;15.77;;;11.23;;
17812;SDS011;9030;50.792;8.320;2023-05-31T03:44:19;20.30;;;11.82;;
17812;SDS011;9030;50.792;8.320;2023-05-31T03:46:46;18.87;;;10.70;;
17812;SDS011;9030;50.792;8.320;2023-05-31T03:49:13;25.20;;;12.68;;
17812;SDS011;9030;50.792;8.320;2023-05-31T03:51:39;18.90;;;10.73;;
17812;SDS011;9030;50.792;8.320;2023-05-31T03:54:06;20.02;;;10.73;;
17812;SDS011;9030;50.792;8.320;2023-05-31T03:56:33;16.67;;;10.38;;
17812;SDS011;9030;50.792;8.320;2023-05-31T03:58:59;16.90;;;11.25;;
17812;SDS011;9030;50.792;8.320;2023-05-31T04:01:27;22.75;;;10.52;;
17812;SDS011;9030;50.792;8.320;2023-05-31T04:03:54;15.63;;;9.93;;
17812;SDS011;9030;50.792;8.320;2023-05-31T04:06:21;18.52;;;11.65;;
17812;SDS011;9030;50.792;8.320;2023-05-31T04:08:47;21.05;;;11.27;;
17812;SDS011;9030;50.792;8.320;2023-05-31T04:11:14;21.77;;;10.55;;
17812;SDS011;9030;50.792;8.320;2023-05-31T04:13:41;15.77;;;9.98;;
17812;SDS011;9030;50.792;8.320;2023-05-31T04:16:07;16.65;;;9.43;;
17812;SDS011;9030;50.792;8.320;2023-05-31T04:18:35;17.40;;;10.18;;
17812;SDS011;9030;50.792;8.320;2023-05-31T04:21:02;16.33;;;8.80;;
17812;SDS011;9030;50.792;8.320;2023-05-31T04:23:29;15.40;;;9.82;;
17812;SDS011;9030;50.792;8.320;2023-05-31T04:25:56;21.38;;;11.48;;
17812;SDS011;9030;50.792;8.320;2023-05-31T04:28:25;16.92;;;10.18;;
17812;SDS011;9030;50.792;8.320;2023-05-31T04:30:54;18.35;;;10.35;;
17812;SDS011;9030;50.792;8.320;2023-05-31T04:33:21;17.10;;;8.70;;
17812;SDS011;9030;50.792;8.320;2023-05-31T04:35:49;18.70;;;9.68;;
17812;SDS011;9030;50.792;8.320;2023-05-31T04:38:16;16.02;;;8.15;;
17812;SDS011;9030;50.792;8.320;2023-05-31T04:40:43;18.10;;;9.30;;
17812;SDS011;9030;50.792;8.320;2023-05-31T04:43:10;13.98;;;8.35;;
17812;SDS011;9030;50.792;8.320;2023-05-31T04:45:37;18.25;;;9.60;;
17812;SDS011;9030;50.792;8.320;2023-05-31T04:48:05;15.25;;;9.73;;
17812;SDS011;9030;50.792;8.320;2023-05-31T04:50:32;16.50;;;7.93;;
17812;SDS011;9030;50.792;8.320;2023-05-31T04:53:00;15.50;;;8.38;;
17812;SDS011;9030;50.792;8.320;2023-05-31T04:55:27;14.32;;;7.50;;
17812;SDS011;9030;50.792;8.320;2023-05-31T04:57:54;12.68;;;8.13;;
17812;SDS011;9030;50.792;8.320;2023-05-31T05:00:20;15.13;;;8.02;;
17812;SDS011;9030;50.792;8.320;2023-05-31T05:02:47;14.98;;;6.72;;
17812;SDS011;9030;50.792;8.320;2023-05-31T05:05:14;15.77;;;8.27;;
17812;SDS011;9030;50.792;8.320;2023-05-31T05:07:42;15.25;;;6.80;;
17812;SDS011;9030;50.792;8.320;2023-05-31T05:10:10;15.32;;;7.13;;
17812;SDS011;9030;50.792;8.320;2023-05-31T05:12:37;17.38;;;6.82;;
17812;SDS011;9030;50.792;8.320;2023-05-31T05:15:04;12.32;;;6.47;;
17812;SDS011;9030;50.792;8.320;2023-05-31T05:17:32;13.90;;;7.70;;
17812;SDS011;9030;50.792;8.320;2023-05-31T05:19:58;15.32;;;6.68;;
17812;SDS011;9030;50.792;8.320;2023-05-31T05:22:25;16.25;;;6.68;;
17812;SDS011;9030;50.792;8.320;2023-05-31T05:24:52;14.55;;;5.60;;
17812;SDS011;9030;50.792;8.320;2023-05-31T05:27:20;15.27;;;6.97;;
17812;SDS011;9030;50.792;8.320;2023-05-31T05:29:47;12.13;;;6.07;;
17812;SDS011;9030;50.792;8.320;2023-05-31T05:32:14;13.30;;;5.55;;
17812;SDS011;9030;50.792;8.320;2023-05-31T05:34:41;13.35;;;6.32;;
17812;SDS011;9030;50.792;8.320;2023-05-31T05:37:07;15.55;;;7.07;;
17812;SDS011;9030;50.792;8.320;2023-05-31T05:39:34;12.23;;;6.22;;
17812;SDS011;9030;50.792;8.320;2023-05-31T05:42:00;12.82;;;6.53;;
17812;SDS011;9030;50.792;8.320;2023-05-31T05:44:29;12.27;;;5.65;;
17812;SDS011;9030;50.792;8.320;2023-05-31T05:46:55;16.15;;;6.10;;
17812;SDS011;9030;50.792;8.320;2023-05-31T05:49:22;13.70;;;6.05;;
17812;SDS011;9030;50.792;8.320;2023-05-31T05:51:49;16.27;;;6.07;;
17812;SDS011;9030;50.792;8.320;2023-05-31T05:54:16;13.75;;;6.45;;
17812;SDS011;9030;50.792;8.320;2023-05-31T05:56:42;13.60;;;5.90;;
17812;SDS011;9030;50.792;8.320;2023-05-31T05:59:09;14.30;;;5.82;;
17812;SDS011;9030;50.792;8.320;2023-05-31T06:01:37;19.40;;;5.93;;
17812;SDS011;9030;50.792;8.320;2023-05-31T06:04:03;17.23;;;6.00;;
17812;SDS011;9030;50.792;8.320;2023-05-31T06:06:30;14.45;;;6.15;;
17812;SDS011;9030;50.792;8.320;2023-05-31T06:08:57;13.02;;;6.30;;
17812;SDS011;9030;50.792;8.320;2023-05-31T06:11:24;15.75;;;5.55;;
17812;SDS011;9030;50.792;8.320;2023-05-31T06:13:50;12.95;;;5.05;;
17812;SDS011;9030;50.792;8.320;2023-05-31T06:16:21;13.93;;;5.72;;
17812;SDS011;9030;50.792;8.320;2023-05-31T06:18:49;12.30;;;5.63;;
17812;SDS011;9030;50.792;8.320;2023-05-31T06:21:16;17.42;;;5.78;;
17812;SDS011;9030;50.792;8.320;2023-05-31T06:23:43;13.60;;;5.13;;
17812;SDS011;9030;50.792;8.320;2023-05-31T06:26:09;12.65;;;6.25;;
17812;SDS011;9030;50.792;8.320;2023-05-31T06:28:36;12.32;;;5.05;;
17812;SDS011;9030;50.792;8.320;2023-05-31T06:31:03;12.43;;;5.07;;
17812;SDS011;9030;50.792;8.320;2023-05-31T06:33:30;14.52;;;4.35;;
17812;SDS011;9030;50.792;8.320;2023-05-31T06:35:58;12.32;;;5.38;;
17812;SDS011;9030;50.792;8.320;2023-05-31T06:38:25;12.52;;;4.85;;
17812;SDS011;9030;50.792;8.320;2023-05-31T06:40:51;13.07;;;4.90;;
17812;SDS011;9030;50.792;8.320;2023-05-31T06:43:18;12.95;;;5.63;;
17812;SDS011;9030;50.792;8.320;2023-05-31T06:45:45;10.18;;;4.20;;
17812;SDS011;9030;50.792;8.320;2023-05-31T06:48:12;15.10;;;5.28;;
17812;SDS011;9030;50.792;8.320;2023-05-31T06:50:38;12.40;;;4.70;;
17812;SDS011;9030;50.792;8.320;2023-05-31T06:53:06;12.15;;;5.32;;
17812;SDS011;9030;50.792;8.320;2023-05-31T06:55:34;10.63;;;4.25;;
17812;SDS011;9030;50.792;8.320;2023-05-31T06:58:01;11.90;;;4.65;;
17812;SDS011;9030;50.792;8.320;2023-05-31T07:00:27;11.27;;;4.28;;
17812;SDS011;9030;50.792;8.320;2023-05-31T07:02:54;9.93;;;4.30;;
17812;SDS011;9030;50.792;8.320;2023-05-31T07:05:21;11.20;;;4.60;;
17812;SDS011;9030;50.792;8.320;2023-05-31T07:07:47;15.70;;;5.15;;
17812;SDS011;9030;50.792;8.320;2023-05-31T07:10:15;9.35;;;4.60;;
17812;SDS011;9030;50.792;8.320;2023-05-31T07:12:42;11.02;;;4.70;;
17812;SDS011;9030;50.792;8.320;2023-05-31T07:15:09;15.57;;;4.60;;
17812;SDS011;9030;50.792;8.320;2023-05-31T07:17:36;10.48;;;4.80;;
17812;SDS011;9030;50.792;8.320;2023-05-31T07:20:03;10.35;;;4.88;;
17812;SDS011;9030;50.792;8.320;2023-05-31T07:22:31;11.93;;;5.18;;
17812;SDS011;9030;50.792;8.320;2023-05-31T07:24:58;9.57;;;4.30;;
17812;SDS011;9030;50.792;8.320;2023-05-31T07:27:26;11.27;;;4.78;;
17812;SDS011;9030;50.792;8.320;2023-05-31T07:29:53;13.10;;;4.38;;
17812;SDS011;9030;50.792;8.320;2023-05-31T07:32:19;11.77;;;3.83;;
17812;SDS011;9030;50.792;8.320;2023-05-31T07:34:46;8.27;;;3.70;;
17812;SDS011;9030;50.792;8.320;2023-05-31T07:37:13;11.55;;;4.28;;
17812;SDS011;9030;50.792;8.320;2023-05-31T07:39:40;11.07;;;3.67;;
17812;SDS011;9030;50.792;8.320;2023-05-31T07:42:07;8.48;;;4.15;;
17812;SDS011;9030;50.792;8.320;2023-05-31T07:44:35;11.70;;;3.97;;
17812;SDS011;9030;50.792;8.320;2023-05-31T07:47:02;9.68;;;3.53;;
17812;SDS011;9030;50.792;8.320;2023-05-31T07:49:29;11.73;;;4.05;;
17812;SDS011;9030;50.792;8.320;2023-05-31T07:51:55;9.43;;;3.53;;
17812;SDS011;9030;50.792;8.320;2023-05-31T07:54:22;12.48;;;4.57;;
17812;SDS011;9030;50.792;8.320;2023-05-31T07:56:48;14.52;;;4.65;;
17812;SDS011;9030;50.792;8.320;2023-05-31T07:59:15;11.40;;;4.10;;
17812;SDS011;9030;50.792;8.320;2023-05-31T08:01:44;12.15;;;4.38;;
17812;SDS011;9030;50.792;8.320;2023-05-31T08:04:11;9.20;;;4.18;;
17812;SDS011;9030;50.792;8.320;2023-05-31T08:06:38;10.27;;;3.90;;
17812;SDS011;9030;50.792;8.320;2023-05-31T08:09:06;11.07;;;4.15;;
17812;SDS011;9030;50.792;8.320;2023-05-31T08:11:33;10.45;;;4.43;;
17812;SDS011;9030;50.792;8.320;2023-05-31T08:14:01;9.48;;;3.33;;
17812;SDS011;9030;50.792;8.320;2023-05-31T08:16:28;9.10;;;3.60;;
17812;SDS011;9030;50.792;8.320;2023-05-31T08:18:56;10.00;;;4.65;;
17812;SDS011;9030;50.792;8.320;2023-05-31T08:21:23;14.45;;;4.40;;
17812;SDS011;9030;50.792;8.320;2023-05-31T08:23:50;7.28;;;3.42;;
17812;SDS011;9030;50.792;8.320;2023-05-31T08:26:16;7.18;;;3.45;;
17812;SDS011;9030;50.792;8.320;2023-05-31T08:28:43;11.55;;;4.10;;
17812;SDS011;9030;50.792;8.320;2023-05-31T08:31:10;9.45;;;3.33;;
17812;SDS011;9030;50.792;8.320;2023-05-31T08:33:36;13.20;;;4.75;;
17812;SDS011;9030;50.792;8.320;2023-05-31T08:36:07;7.75;;;3.28;;
17812;SDS011;9030;50.792;8.320;2023-05-31T08:38:33;11.57;;;4.05;;
17812;SDS011;9030;50.792;8.320;2023-05-31T08:41:01;10.32;;;2.97;;
17812;SDS011;9030;50.792;8.320;2023-05-31T08:43:29;8.27;;;3.38;;
17812;SDS011;9030;50.792;8.320;2023-05-31T08:45:57;10.68;;;3.25;;
17812;SDS011;9030;50.792;8.320;2023-05-31T08:48:24;12.18;;;3.80;;
17812;SDS011;9030;50.792;8.320;2023-05-31T08:50:55;9.38;;;4.05;;
17812;SDS011;9030;50.792;8.320;2023-05-31T08:53:24;12.07;;;3.78;;
17812;SDS011;9030;50.792;8.320;2023-05-31T08:55:51;10.65;;;3.22;;
17812;SDS011;9030;50.792;8.320;2023-05-31T08:58:19;8.65;;;2.75;;
17812;SDS011;9030;50.792;8.320;2023-05-31T09:00:46;9.82;;;4.00;;
17812;SDS011;9030;50.792;8.320;2023-05-31T09:03:14;9.20;;;3.45;;
17812;SDS011;9030;50.792;8.320;2023-05-31T09:05:41;9.35;;;3.00;;
17812;SDS011;9030;50.792;8.320;2023-05-31T09:08:07;13.70;;;3.90;;
17812;SDS011;9030;50.792;8.320;2023-05-31T09:10:35;10.32;;;3.50;;
17812;SDS011;9030;50.792;8.320;2023-05-31T09:13:02;8.20;;;3.45;;
17812;SDS011;9030;50.792;8.320;2023-05-31T09:15:29;8.65;;;3.78;;
17812;SDS011;9030;50.792;8.320;2023-05-31T09:18:07;11.18;;;3.13;;
17812;SDS011;9030;50.792;8.320;2023-05-31T09:20:38;9.38;;;3.38;;
17812;SDS011;9030;50.792;8.320;2023-05-31T09:23:05;8.75;;;3.28;;
17812;SDS011;9030;50.792;8.320;2023-05-31T09:25:44;9.02;;;3.63;;
17812;SDS011;9030;50.792;8.320;2023-05-31T09:28:12;7.90;;;3.08;;
17812;SDS011;9030;50.792;8.320;2023-05-31T09:30:39;11.13;;;3.38;;
17812;SDS011;9030;50.792;8.320;2023-05-31T09:33:06;8.45;;;2.88;;
17812;SDS011;9030;50.792;8.320;2023-05-31T09:35:33;9.60;;;3.58;;
17812;SDS011;9030;50.792;8.320;2023-05-31T09:38:03;9.18;;;3.03;;
17812;SDS011;9030;50.792;8.320;2023-05-31T09:40:30;10.93;;;3.53;;
17812;SDS011;9030;50.792;8.320;2023-05-31T09:42:59;8.02;;;2.97;;
17812;SDS011;9030;50.792;8.320;2023-05-31T09:45:26;8.13;;;3.17;;
17812;SDS011;9030;50.792;8.320;2023-05-31T09:47:54;5.90;;;3.45;;
17812;SDS011;9030;50.792;8.320;2023-05-31T09:50:22;9.10;;;2.88;;
17812;SDS011;9030;50.792;8.320;2023-05-31T09:52:50;4.35;;;2.42;;
17812;SDS011;9030;50.792;8.320;2023-05-31T09:55:21;7.97;;;3.13;;
17812;SDS011;9030;50.792;8.320;2023-05-31T09:57:48;8.30;;;2.90;;
17812;SDS011;9030;50.792;8.320;2023-05-31T10:00:21;6.88;;;3.13;;
17812;SDS011;9030;50.792;8.320;2023-05-31T10:02:49;8.35;;;2.75;;
17812;SDS011;9030;50.792;8.320;2023-05-31T10:05:18;8.10;;;2.92;;
17812;SDS011;9030;50.792;8.320;2023-05-31T10:07:45;10.77;;;3.65;;
17812;SDS011;9030;50.792;8.320;2023-05-31T10:10:13;9.43;;;4.38;;
17812;SDS011;9030;50.792;8.320;2023-05-31T10:12:42;10.00;;;2.85;;
17812;SDS011;9030;50.792;8.320;2023-05-31T10:15:16;8.93;;;2.58;;
17812;SDS011;9030;50.792;8.320;2023-05-31T10:17:46;8.43;;;3.22;;
17812;SDS011;9030;50.792;8.320;2023-05-31T10:20:18;9.05;;;3.00;;
17812;SDS011;9030;50.792;8.320;2023-05-31T10:22:45;8.30;;;2.92;;
17812;SDS011;9030;50.792;8.320;2023-05-31T10:25:17;10.35;;;2.92;;
17812;SDS011;9030;50.792;8.320;2023-05-31T10:27:53;8.48;;;2.92;;
17812;SDS011;9030;50.792;8.320;2023-05-31T10:30:24;7.47;;;2.70;;
17812;SDS011;9030;50.792;8.320;2023-05-31T10:33:02;12.00;;;3.30;;
17812;SDS011;9030;50.792;8.320;2023-05-31T10:35:32;13.00;;;3.40;;
17812;SDS011;9030;50.792;8.320;2023-05-31T10:37:59;9.45;;;3.08;;
17812;SDS011;9030;50.792;8.320;2023-05-31T10:40:30;5.82;;;2.30;;
17812;SDS011;9030;50.792;8.320;2023-05-31T10:43:03;8.07;;;2.40;;
17812;SDS011;9030;50.792;8.320;2023-05-31T10:45:34;5.07;;;2.83;;
17812;SDS011;9030;50.792;8.320;2023-05-31T10:48:09;5.32;;;2.25;;
17812;SDS011;9030;50.792;8.320;2023-05-31T10:50:51;6.38;;;2.10;;
17812;SDS011;9030;50.792;8.320;2023-05-31T10:53:18;8.15;;;2.63;;
17812;SDS011;9030;50.792;8.320;2023-05-31T10:55:46;8.02;;;3.03;;
17812;SDS011;9030;50.792;8.320;2023-05-31T10:58:24;8.23;;;2.97;;
17812;SDS011;9030;50.792;8.320;2023-05-31T11:00:52;9.80;;;3.15;;
17812;SDS011;9030;50.792;8.320;2023-05-31T11:03:22;9.15;;;3.15;;
17812;SDS011;9030;50.792;8.320;2023-05-31T11:05:56;8.95;;;2.40;;
17812;SDS011;9030;50.792;8.320;2023-05-31T11:08:24;5.85;;;1.90;;
17812;SDS011;9030;50.792;8.320;2023-05-31T11:10:51;7.55;;;2.65;;
17812;SDS011;9030;50.792;8.320;2023-05-31T11:13:18;9.13;;;2.60;;
17812;SDS011;9030;50.792;8.320;2023-05-31T11:15:45;10.05;;;2.97;;
17812;SDS011;9030;50.792;8.320;2023-05-31T11:18:15;16.73;;;3.97;;
17812;SDS011;9030;50.792;8.320;2023-05-31T11:20:49;17.30;;;4.55;;
17812;SDS011;9030;50.792;8.320;2023-05-31T11:23:23;8.15;;;2.55;;
17812;SDS011;9030;50.792;8.320;2023-05-31T11:26:08;8.90;;;2.85;;
17812;SDS011;9030;50.792;8.320;2023-05-31T11:28:54;5.82;;;2.28;;
17812;SDS011;9030;50.792;8.320;2023-05-31T11:34:28;7.57;;;2.40;;
17812;SDS011;9030;50.792;8.320;2023-05-31T11:36:58;7.40;;;2.38;;
17812;SDS011;9030;50.792;8.320;2023-05-31T11:39:26;10.30;;;2.40;;
17812;SDS011;9030;50.792;8.320;2023-05-31T11:41:53;9.57;;;2.78;;
17812;SDS011;9030;50.792;8.320;2023-05-31T11:44:21;5.85;;;2.55;;
17812;SDS011;9030;50.792;8.320;2023-05-31T11:46:55;7.22;;;2.80;;
17812;SDS011;9030;50.792;8.320;2023-05-31T11:49:25;5.78;;;2.42;;
17812;SDS011;9030;50.792;8.320;2023-05-31T11:51:53;7.97;;;2.63;;
17812;SDS011;9030;50.792;8.320;2023-05-31T11:54:24;6.38;;;2.67;;
17812;SDS011;9030;50.792;8.320;2023-05-31T11:56:54;7.32;;;2.70;;
17812;SDS011;9030;50.792;8.320;2023-05-31T11:59:22;6.53;;;2.75;;
17812;SDS011;9030;50.792;8.320;2023-05-31T12:01:50;7.20;;;2.72;;
17812;SDS011;9030;50.792;8.320;2023-05-31T12:04:16;6.32;;;2.40;;
17812;SDS011;9030;50.792;8.320;2023-05-31T12:06:43;6.30;;;2.85;;
17812;SDS011;9030;50.792;8.320;2023-05-31T12:09:10;7.75;;;2.53;;
17812;SDS011;9030;50.792;8.320;2023-05-31T12:11:39;6.75;;;3.05;;
17812;SDS011;9030;50.792;8.320;2023-05-31T12:14:06;7.30;;;2.53;;
17812;SDS011;9030;50.792;8.320;2023-05-31T12:16:32;7.68;;;2.72;;
17812;SDS011;9030;50.792;8.320;2023-05-31T12:18:59;10.43;;;3.00;;
17812;SDS011;9030;50.792;8.320;2023-05-31T12:21:26;10.40;;;2.90;;
17812;SDS011;9030;50.792;8.320;2023-05-31T12:23:53;6.95;;;2.35;;
17812;SDS011;9030;50.792;8.320;2023-05-31T12:26:21;5.95;;;2.58;;
17812;SDS011;9030;50.792;8.320;2023-05-31T12:28:49;7.03;;;2.80;;
17812;SDS011;9030;50.792;8.320;2023-05-31T12:31:19;7.97;;;2.90;;
17812;SDS011;9030;50.792;8.320;2023-05-31T12:33:51;6.00;;;3.10;;
17812;SDS011;9030;50.792;8.320;2023-05-31T12:36:24;6.18;;;3.05;;
17812;SDS011;9030;50.792;8.320;2023-05-31T12:38:55;9.85;;;3.13;;
17812;SDS011;9030;50.792;8.320;2023-05-31T12:41:22;8.68;;;3.17;;
17812;SDS011;9030;50.792;8.320;2023-05-31T12:43:50;10.07;;;3.25;;
17812;SDS011;9030;50.792;8.320;2023-05-31T12:46:16;7.85;;;3.72;;
17812;SDS011;9030;50.792;8.320;2023-05-31T12:48:46;9.27;;;3.42;;
17812;SDS011;9030;50.792;8.320;2023-05-31T12:51:13;12.93;;;3.17;;
17812;SDS011;9030;50.792;8.320;2023-05-31T12:53:45;9.30;;;3.25;;
17812;SDS011;9030;50.792;8.320;2023-05-31T12:56:12;8.15;;;3.20;;
17812;SDS011;9030;50.792;8.320;2023-05-31T12:58:38;8.30;;;3.30;;
17812;SDS011;9030;50.792;8.320;2023-05-31T13:01:06;7.25;;;2.75;;
17812;SDS011;9030;50.792;8.320;2023-05-31T13:03:33;9.02;;;3.53;;
17812;SDS011;9030;50.792;8.320;2023-05-31T13:06:01;7.93;;;3.35;;
17812;SDS011;9030;50.792;8.320;2023-05-31T13:08:27;6.82;;;2.83;;
17812;SDS011;9030;50.792;8.320;2023-05-31T13:10:54;7.50;;;2.88;;
17812;SDS011;9030;50.792;8.320;2023-05-31T13:13:21;9.95;;;3.45;;
17812;SDS011;9030;50.792;8.320;2023-05-31T13:15:47;9.20;;;3.35;;
17812;SDS011;9030;50.792;8.320;2023-05-31T13:18:16;13.38;;;3.13;;
17812;SDS011;9030;50.792;8.320;2023-05-31T13:20:42;6.68;;;3.38;;
17812;SDS011;9030;50.792;8.320;2023-05-31T13:23:10;6.97;;;3.10;;
17812;SDS011;9030;50.792;8.320;2023-05-31T13:25:36;7.80;;;3.13;;
17812;SDS011;9030;50.792;8.320;2023-05-31T13:28:05;7.70;;;3.30;;
17812;SDS011;9030;50.792;8.320;2023-05-31T13:30:32;7.90;;;3.00;;
17812;SDS011;9030;50.792;8.320;2023-05-31T13:32:58;10.00;;;3.53;;
17812;SDS011;9030;50.792;8.320;2023-05-31T13:35:27;7.05;;;3.03;;
17812;SDS011;9030;50.792;8.320;2023-05-31T13:37:53;12.25;;;3.95;;
17812;SDS011;9030;50.792;8.320;2023-05-31T13:40:20;4.90;;;2.90;;
17812;SDS011;9030;50.792;8.320;2023-05-31T13:42:46;6.95;;;3.00;;
17812;SDS011;9030;50.792;8.320;2023-05-31T13:45:13;12.60;;;3.75;;
17812;SDS011;9030;50.792;8.320;2023-05-31T13:47:40;11.60;;;3.40;;
17812;SDS011;9030;50.792;8.320;2023-05-31T13:50:07;5.68;;;2.88;;
17812;SDS011;9030;50.792;8.320;2023-05-31T13:52:36;5.43;;;2.58;;
17812;SDS011;9030;50.792;8.320;2023-05-31T13:55:03;12.18;;;3.75;;
17812;SDS011;9030;50.792;8.320;2023-05-31T13:57:30;10.93;;;3.67;;
17812;SDS011;9030;50.792;8.320;2023-05-31T13:59:57;9.90;;;3.70;;
17812;SDS011;9030;50.792;8.320;2023-05-31T14:02:23;8.50;;;2.95;;
17812;SDS011;9030;50.792;8.320;2023-05-31T14:04:50;8.88;;;3.30;;
17812;SDS011;9030;50.792;8.320;2023-05-31T14:07:17;7.63;;;3.38;;
17812;SDS011;9030;50.792;8.320;2023-05-31T14:09:45;7.53;;;2.72;;
17812;SDS011;9030;50.792;8.320;2023-05-31T14:12:12;6.47;;;2.55;;
17812;SDS011;9030;50.792;8.320;2023-05-31T14:14:39;9.48;;;3.30;;
17812;SDS011;9030;50.792;8.320;2023-05-31T14:17:06;7.25;;;3.05;;
17812;SDS011;9030;50.792;8.320;2023-05-31T14:19:33;5.35;;;2.78;;
17812;SDS011;9030;50.792;8.320;2023-05-31T14:22:00;5.75;;;2.92;;
17812;SDS011;9030;50.792;8.320;2023-05-31T14:24:27;11.60;;;3.63;;
17812;SDS011;9030;50.792;8.320;2023-05-31T14:26:55;7.88;;;3.10;;
17812;SDS011;9030;50.792;8.320;2023-05-31T14:29:21;5.82;;;2.75;;
17812;SDS011;9030;50.792;8.320;2023-05-31T14:31:48;7.32;;;2.75;;
17812;SDS011;9030;50.792;8.320;2023-05-31T14:34:15;6.40;;;2.80;;
17812;SDS011;9030;50.792;8.320;2023-05-31T14:36:42;7.85;;;3.58;;
17812;SDS011;9030;50.792;8.320;2023-05-31T14:39:10;6.50;;;3.13;;
17812;SDS011;9030;50.792;8.320;2023-05-31T14:41:36;8.93;;;3.03;;
17812;SDS011;9030;50.792;8.320;2023-05-31T14:44:04;7.20;;;3.03;;
17812;SDS011;9030;50.792;8.320;2023-05-31T14:46:31;5.05;;;2.50;;
17812;SDS011;9030;50.792;8.320;2023-05-31T14:48:58;6.95;;;2.80;;
17812;SDS011;9030;50.792;8.320;2023-05-31T14:51:24;5.63;;;2.95;;
17812;SDS011;9030;50.792;8.320;2023-05-31T14:53:53;8.68;;;3.03;;
17812;SDS011;9030;50.792;8.320;2023-05-31T14:56:20;7.13;;;3.20;;
17812;SDS011;9030;50.792;8.320;2023-05-31T14:58:46;5.55;;;3.03;;